sensor_id;sensor_type;location;lat;lon;timestamp;temperature;humidity
9885;DHT22;4981;50.966;4.842;2024-02-16T00:01:48;13.50;1.00
9885;DHT22;4981;50.966;4.842;2024-02-16T00:04:15;13.50;1.00
9885;DHT22;4981;50.966;4.842;2024-02-16T00:06:42;13.50;1.00
9885;DHT22;4981;50.966;4.842;2024-02-16T00:09:09;13.50;1.00
9885;DHT22;4981;50.966;4.842;2024-02-16T00:11:37;13.40;1.00
9885;DHT22;4981;50.966;4.842;2024-02-16T00:14:04;13.50;1.00
9885;DHT22;4981;50.966;4.842;2024-02-16T00:16:31;13.50;1.00
9885;DHT22;4981;50.966;4.842;2024-02-16T00:18:59;13.40;1.00
9885;DHT22;4981;50.966;4.842;2024-02-16T00:21:26;13.30;1.00
9885;DHT22;4981;50.966;4.842;2024-02-16T00:23:53;13.20;1.00
9885;DHT22;4981;50.966;4.842;2024-02-16T00:26:19;13.30;1.00
9885;DHT22;4981;50.966;4.842;2024-02-16T00:28:48;13.30;1.00
9885;DHT22;4981;50.966;4.842;2024-02-16T00:31:15;13.30;1.00
9885;DHT22;4981;50.966;4.842;2024-02-16T00:33:42;13.30;1.00
9885;DHT22;4981;50.966;4.842;2024-02-16T00:36:09;13.40;1.00
9885;DHT22;4981;50.966;4.842;2024-02-16T00:38:36;13.30;1.00
9885;DHT22;4981;50.966;4.842;2024-02-16T00:41:03;13.10;1.00
9885;DHT22;4981;50.966;4.842;2024-02-16T00:43:30;13.10;1.00
9885;DHT22;4981;50.966;4.842;2024-02-16T00:45:59;13.30;1.00
9885;DHT22;4981;50.966;4.842;2024-02-16T00:48:26;13.30;1.00
9885;DHT22;4981;50.966;4.842;2024-02-16T00:50:52;13.20;1.00
9885;DHT22;4981;50.966;4.842;2024-02-16T00:53:20;13.20;1.00
9885;DHT22;4981;50.966;4.842;2024-02-16T00:55:47;13.30;1.00
9885;DHT22;4981;50.966;4.842;2024-02-16T00:58:14;13.30;1.00
9885;DHT22;4981;50.966;4.842;2024-02-16T01:00:41;13.40;1.00
9885;DHT22;4981;50.966;4.842;2024-02-16T01:03:10;13.20;1.00
9885;DHT22;4981;50.966;4.842;2024-02-16T01:05:38;13.40;1.00
9885;DHT22;4981;50.966;4.842;2024-02-16T01:08:06;13.50;1.00
9885;DHT22;4981;50.966;4.842;2024-02-16T01:10:33;13.30;1.00
9885;DHT22;4981;50.966;4.842;2024-02-16T01:13:00;13.20;1.00
9885;DHT22;4981;50.966;4.842;2024-02-16T01:15:29;13.10;1.00
9885;DHT22;4981;50.966;4.842;2024-02-16T01:17:56;13.10;1.00
9885;DHT22;4981;50.966;4.842;2024-02-16T01:20:27;13.10;1.00
9885;DHT22;4981;50.966;4.842;2024-02-16T01:22:56;13.10;1.00
9885;DHT22;4981;50.966;4.842;2024-02-16T01:25:23;13.10;1.00
9885;DHT22;4981;50.966;4.842;2024-02-16T01:27:50;13.10;1.00
9885;DHT22;4981;50.966;4.842;2024-02-16T01:30:17;13.10;1.00
9885;DHT22;4981;50.966;4.842;2024-02-16T01:32:45;13.20;1.00
9885;DHT22;4981;50.966;4.842;2024-02-16T01:35:12;13.10;1.00
9885;DHT22;4981;50.966;4.842;2024-02-16T01:37:42;13.10;1.00
9885;DHT22;4981;50.966;4.842;2024-02-16T01:40:10;13.10;1.00
9885;DHT22;4981;50.966;4.842;2024-02-16T01:42:40;13.10;1.00
9885;DHT22;4981;50.966;4.842;2024-02-16T01:45:08;13.20;1.00
9885;DHT22;4981;50.966;4.842;2024-02-16T01:47:36;13.20;1.00
9885;DHT22;4981;50.966;4.842;2024-02-16T01:50:05;13.20;1.00
9885;DHT22;4981;50.966;4.842;2024-02-16T01:52:33;13.30;1.00
9885;DHT22;4981;50.966;4.842;2024-02-16T01:55:04;13.50;1.00
9885;DHT22;4981;50.966;4.842;2024-02-16T01:57:32;13.60;1.00
9885;DHT22;4981;50.966;4.842;2024-02-16T01:59:59;13.50;1.00
9885;DHT22;4981;50.966;4.842;2024-02-16T02:02:26;13.30;1.00
9885;DHT22;4981;50.966;4.842;2024-02-16T02:04:53;13.40;1.00
9885;DHT22;4981;50.966;4.842;2024-02-16T02:07:25;13.60;1.00
9885;DHT22;4981;50.966;4.842;2024-02-16T02:09:52;13.60;1.00
9885;DHT22;4981;50.966;4.842;2024-02-16T02:12:21;13.60;1.00
9885;DHT22;4981;50.966;4.842;2024-02-16T02:14:49;13.70;1.00
9885;DHT22;4981;50.966;4.842;2024-02-16T02:17:17;13.90;1.00
9885;DHT22;4981;50.966;4.842;2024-02-16T02:19:45;13.70;1.00
9885;DHT22;4981;50.966;4.842;2024-02-16T02:22:16;13.50;1.00
9885;DHT22;4981;50.966;4.842;2024-02-16T02:24:43;13.60;1.00
9885;DHT22;4981;50.966;4.842;2024-02-16T02:27:10;13.70;1.00
9885;DHT22;4981;50.966;4.842;2024-02-16T02:29:37;13.60;1.00
9885;DHT22;4981;50.966;4.842;2024-02-16T02:32:04;13.90;1.00
9885;DHT22;4981;50.966;4.842;2024-02-16T02:34:32;13.90;1.00
9885;DHT22;4981;50.966;4.842;2024-02-16T02:36:59;13.80;1.00
9885;DHT22;4981;50.966;4.842;2024-02-16T02:39:27;13.70;1.00
9885;DHT22;4981;50.966;4.842;2024-02-16T02:41:54;13.80;1.00
9885;DHT22;4981;50.966;4.842;2024-02-16T02:44:23;13.80;1.00
9885;DHT22;4981;50.966;4.842;2024-02-16T02:46:50;13.80;1.00
9885;DHT22;4981;50.966;4.842;2024-02-16T02:49:17;13.60;1.00
9885;DHT22;4981;50.966;4.842;2024-02-16T02:51:45;13.70;1.00
9885;DHT22;4981;50.966;4.842;2024-02-16T02:54:12;13.70;1.00
9885;DHT22;4981;50.966;4.842;2024-02-16T02:56:40;13.40;1.00
9885;DHT22;4981;50.966;4.842;2024-02-16T02:59:07;13.60;1.00
9885;DHT22;4981;50.966;4.842;2024-02-16T03:01:36;13.50;1.00
9885;DHT22;4981;50.966;4.842;2024-02-16T03:04:03;13.70;1.00
9885;DHT22;4981;50.966;4.842;2024-02-16T03:06:31;13.70;1.00
9885;DHT22;4981;50.966;4.842;2024-02-16T03:08:58;13.60;1.00
9885;DHT22;4981;50.966;4.842;2024-02-16T03:11:26;13.50;1.00
9885;DHT22;4981;50.966;4.842;2024-02-16T03:13:54;13.50;1.00
9885;DHT22;4981;50.966;4.842;2024-02-16T03:16:21;13.10;1.00
9885;DHT22;4981;50.966;4.842;2024-02-16T03:18:48;12.90;1.00
9885;DHT22;4981;50.966;4.842;2024-02-16T03:21:15;14.30;1.00
9885;DHT22;4981;50.966;4.842;2024-02-16T03:23:42;13.20;1.00
9885;DHT22;4981;50.966;4.842;2024-02-16T03:26:16;13.10;1.00
9885;DHT22;4981;50.966;4.842;2024-02-16T03:28:44;13.30;1.00
9885;DHT22;4981;50.966;4.842;2024-02-16T03:31:18;13.30;1.00
9885;DHT22;4981;50.966;4.842;2024-02-16T03:33:46;13.30;1.00
9885;DHT22;4981;50.966;4.842;2024-02-16T03:36:13;13.20;1.00
9885;DHT22;4981;50.966;4.842;2024-02-16T03:38:41;13.20;1.00
9885;DHT22;4981;50.966;4.842;2024-02-16T03:41:12;13.40;1.00
9885;DHT22;4981;50.966;4.842;2024-02-16T03:43:42;13.60;1.00
9885;DHT22;4981;50.966;4.842;2024-02-16T03:46:09;13.40;1.00
9885;DHT22;4981;50.966;4.842;2024-02-16T03:48:38;13.50;1.00
9885;DHT22;4981;50.966;4.842;2024-02-16T03:51:06;13.50;1.00
9885;DHT22;4981;50.966;4.842;2024-02-16T03:53:33;13.40;1.00
9885;DHT22;4981;50.966;4.842;2024-02-16T03:56:00;13.50;1.00
9885;DHT22;4981;50.966;4.842;2024-02-16T03:58:27;13.50;1.00
9885;DHT22;4981;50.966;4.842;2024-02-16T04:00:54;13.30;1.00
9885;DHT22;4981;50.966;4.842;2024-02-16T04:03:21;13.30;1.00
9885;DHT22;4981;50.966;4.842;2024-02-16T04:05:50;13.40;1.00
9885;DHT22;4981;50.966;4.842;2024-02-16T04:08:18;13.60;1.00
9885;DHT22;4981;50.966;4.842;2024-02-16T04:10:47;13.30;1.00
9885;DHT22;4981;50.966;4.842;2024-02-16T04:13:14;13.30;1.00
9885;DHT22;4981;50.966;4.842;2024-02-16T04:15:41;13.20;1.00
9885;DHT22;4981;50.966;4.842;2024-02-16T04:18:08;13.40;1.00
9885;DHT22;4981;50.966;4.842;2024-02-16T04:20:36;13.30;1.00
9885;DHT22;4981;50.966;4.842;2024-02-16T04:23:05;13.10;1.00
9885;DHT22;4981;50.966;4.842;2024-02-16T04:25:32;13.10;1.00
9885;DHT22;4981;50.966;4.842;2024-02-16T04:27:59;13.40;1.00
9885;DHT22;4981;50.966;4.842;2024-02-16T04:30:25;13.40;1.00
9885;DHT22;4981;50.966;4.842;2024-02-16T04:32:52;13.40;1.00
9885;DHT22;4981;50.966;4.842;2024-02-16T04:35:19;13.30;1.00
9885;DHT22;4981;50.966;4.842;2024-02-16T04:37:46;13.50;1.00
9885;DHT22;4981;50.966;4.842;2024-02-16T04:40:14;13.30;1.00
9885;DHT22;4981;50.966;4.842;2024-02-16T04:42:41;13.50;1.00
9885;DHT22;4981;50.966;4.842;2024-02-16T04:45:11;13.50;1.00
9885;DHT22;4981;50.966;4.842;2024-02-16T04:47:38;13.50;1.00
9885;DHT22;4981;50.966;4.842;2024-02-16T04:50:06;13.40;1.00
9885;DHT22;4981;50.966;4.842;2024-02-16T04:52:36;13.40;1.00
9885;DHT22;4981;50.966;4.842;2024-02-16T04:55:04;13.30;1.00
9885;DHT22;4981;50.966;4.842;2024-02-16T04:57:33;13.20;1.00
9885;DHT22;4981;50.966;4.842;2024-02-16T05:00:01;13.20;1.00
9885;DHT22;4981;50.966;4.842;2024-02-16T05:02:27;13.20;1.00
9885;DHT22;4981;50.966;4.842;2024-02-16T05:04:54;13.10;1.00
9885;DHT22;4981;50.966;4.842;2024-02-16T05:07:22;13.10;1.00
9885;DHT22;4981;50.966;4.842;2024-02-16T05:09:49;13.30;1.00
9885;DHT22;4981;50.966;4.842;2024-02-16T05:12:21;13.20;1.00
9885;DHT22;4981;50.966;4.842;2024-02-16T05:14:50;13.30;1.00
9885;DHT22;4981;50.966;4.842;2024-02-16T05:17:18;13.30;1.00
9885;DHT22;4981;50.966;4.842;2024-02-16T05:19:46;13.20;1.00
9885;DHT22;4981;50.966;4.842;2024-02-16T05:22:13;13.20;1.00
9885;DHT22;4981;50.966;4.842;2024-02-16T05:24:40;13.30;1.00
9885;DHT22;4981;50.966;4.842;2024-02-16T05:27:07;13.30;1.00
9885;DHT22;4981;50.966;4.842;2024-02-16T05:29:36;13.30;1.00
9885;DHT22;4981;50.966;4.842;2024-02-16T05:32:05;13.30;1.00
9885;DHT22;4981;50.966;4.842;2024-02-16T05:34:32;13.30;1.00
9885;DHT22;4981;50.966;4.842;2024-02-16T05:37:04;13.20;1.00
9885;DHT22;4981;50.966;4.842;2024-02-16T05:39:32;13.30;1.00
9885;DHT22;4981;50.966;4.842;2024-02-16T05:42:01;13.30;1.00
9885;DHT22;4981;50.966;4.842;2024-02-16T05:44:28;13.30;1.00
9885;DHT22;4981;50.966;4.842;2024-02-16T05:46:55;13.30;1.00
9885;DHT22;4981;50.966;4.842;2024-02-16T05:49:24;13.30;1.00
9885;DHT22;4981;50.966;4.842;2024-02-16T05:51:51;13.40;1.00
9885;DHT22;4981;50.966;4.842;2024-02-16T05:54:41;13.40;1.00
9885;DHT22;4981;50.966;4.842;2024-02-16T05:57:08;13.40;1.00
9885;DHT22;4981;50.966;4.842;2024-02-16T05:59:35;13.50;1.00
9885;DHT22;4981;50.966;4.842;2024-02-16T06:02:04;13.40;1.00
9885;DHT22;4981;50.966;4.842;2024-02-16T06:04:33;13.40;1.00
9885;DHT22;4981;50.966;4.842;2024-02-16T06:07:00;13.50;1.00
9885;DHT22;4981;50.966;4.842;2024-02-16T06:09:27;13.40;1.00
9885;DHT22;4981;50.966;4.842;2024-02-16T06:12:01;13.40;1.00
9885;DHT22;4981;50.966;4.842;2024-02-16T06:14:29;13.40;1.00
9885;DHT22;4981;50.966;4.842;2024-02-16T06:16:57;13.40;1.00
9885;DHT22;4981;50.966;4.842;2024-02-16T06:19:24;13.50;1.00
9885;DHT22;4981;50.966;4.842;2024-02-16T06:21:53;13.50;1.00
9885;DHT22;4981;50.966;4.842;2024-02-16T06:24:21;13.70;1.00
9885;DHT22;4981;50.966;4.842;2024-02-16T06:26:48;13.80;1.00
9885;DHT22;4981;50.966;4.842;2024-02-16T06:29:15;13.90;1.00
9885;DHT22;4981;50.966;4.842;2024-02-16T06:31:42;13.80;1.00
9885;DHT22;4981;50.966;4.842;2024-02-16T06:34:09;13.70;1.00
9885;DHT22;4981;50.966;4.842;2024-02-16T06:36:36;13.80;1.00
9885;DHT22;4981;50.966;4.842;2024-02-16T06:39:05;13.70;1.00
9885;DHT22;4981;50.966;4.842;2024-02-16T06:41:32;13.70;1.00
9885;DHT22;4981;50.966;4.842;2024-02-16T06:43:59;13.70;1.00
9885;DHT22;4981;50.966;4.842;2024-02-16T06:46:25;13.80;1.00
9885;DHT22;4981;50.966;4.842;2024-02-16T06:48:55;13.80;1.00
9885;DHT22;4981;50.966;4.842;2024-02-16T06:51:23;13.80;1.00
9885;DHT22;4981;50.966;4.842;2024-02-16T06:53:50;13.80;1.00
9885;DHT22;4981;50.966;4.842;2024-02-16T06:56:18;13.80;1.00
9885;DHT22;4981;50.966;4.842;2024-02-16T06:58:46;13.80;1.00
9885;DHT22;4981;50.966;4.842;2024-02-16T07:01:13;13.70;1.00
9885;DHT22;4981;50.966;4.842;2024-02-16T07:03:40;13.70;1.00
9885;DHT22;4981;50.966;4.842;2024-02-16T07:06:07;13.70;1.00
9885;DHT22;4981;50.966;4.842;2024-02-16T07:08:35;13.70;1.00
9885;DHT22;4981;50.966;4.842;2024-02-16T07:11:03;13.80;1.00
9885;DHT22;4981;50.966;4.842;2024-02-16T07:13:32;13.80;1.00
9885;DHT22;4981;50.966;4.842;2024-02-16T07:15:59;13.70;1.00
9885;DHT22;4981;50.966;4.842;2024-02-16T07:18:26;13.80;1.00
9885;DHT22;4981;50.966;4.842;2024-02-16T07:20:54;13.80;1.00
9885;DHT22;4981;50.966;4.842;2024-02-16T07:23:21;13.70;1.00
9885;DHT22;4981;50.966;4.842;2024-02-16T07:25:47;13.70;1.00
9885;DHT22;4981;50.966;4.842;2024-02-16T07:28:15;13.70;1.00
9885;DHT22;4981;50.966;4.842;2024-02-16T07:30:43;13.80;1.00
9885;DHT22;4981;50.966;4.842;2024-02-16T07:33:10;13.80;1.00
9885;DHT22;4981;50.966;4.842;2024-02-16T07:35:37;13.80;1.00
9885;DHT22;4981;50.966;4.842;2024-02-16T07:38:06;13.80;1.00
9885;DHT22;4981;50.966;4.842;2024-02-16T07:40:34;13.80;1.00
9885;DHT22;4981;50.966;4.842;2024-02-16T07:43:01;13.80;1.00
9885;DHT22;4981;50.966;4.842;2024-02-16T07:45:28;13.80;1.00
9885;DHT22;4981;50.966;4.842;2024-02-16T07:47:57;13.70;1.00
9885;DHT22;4981;50.966;4.842;2024-02-16T07:50:24;13.70;1.00
9885;DHT22;4981;50.966;4.842;2024-02-16T07:52:51;13.80;1.00
9885;DHT22;4981;50.966;4.842;2024-02-16T07:55:19;13.80;1.00
9885;DHT22;4981;50.966;4.842;2024-02-16T07:57:46;13.80;1.00
9885;DHT22;4981;50.966;4.842;2024-02-16T08:00:13;13.70;1.00
9885;DHT22;4981;50.966;4.842;2024-02-16T08:02:41;13.90;1.00
9885;DHT22;4981;50.966;4.842;2024-02-16T08:05:10;13.90;1.00
9885;DHT22;4981;50.966;4.842;2024-02-16T08:07:38;13.90;1.00
9885;DHT22;4981;50.966;4.842;2024-02-16T08:10:07;14.00;1.00
9885;DHT22;4981;50.966;4.842;2024-02-16T08:12:34;14.00;1.00
9885;DHT22;4981;50.966;4.842;2024-02-16T08:15:03;14.00;1.00
9885;DHT22;4981;50.966;4.842;2024-02-16T08:17:32;14.00;1.00
9885;DHT22;4981;50.966;4.842;2024-02-16T08:19:59;14.00;1.00
9885;DHT22;4981;50.966;4.842;2024-02-16T08:22:28;14.00;1.00
9885;DHT22;4981;50.966;4.842;2024-02-16T08:24:55;13.70;1.00
9885;DHT22;4981;50.966;4.842;2024-02-16T08:27:22;13.60;1.00
9885;DHT22;4981;50.966;4.842;2024-02-16T08:29:50;13.60;1.00
9885;DHT22;4981;50.966;4.842;2024-02-16T08:32:17;13.60;1.00
9885;DHT22;4981;50.966;4.842;2024-02-16T08:34:46;13.70;1.00
9885;DHT22;4981;50.966;4.842;2024-02-16T08:37:14;13.60;1.00
9885;DHT22;4981;50.966;4.842;2024-02-16T08:39:43;13.30;1.00
9885;DHT22;4981;50.966;4.842;2024-02-16T08:42:10;13.10;1.00
9885;DHT22;4981;50.966;4.842;2024-02-16T08:44:38;13.00;1.00
9885;DHT22;4981;50.966;4.842;2024-02-16T08:47:06;13.00;1.00
9885;DHT22;4981;50.966;4.842;2024-02-16T08:49:33;12.90;1.00
9885;DHT22;4981;50.966;4.842;2024-02-16T08:52:01;12.90;1.00
9885;DHT22;4981;50.966;4.842;2024-02-16T08:54:28;13.10;1.00
9885;DHT22;4981;50.966;4.842;2024-02-16T08:56:56;13.10;1.00
9885;DHT22;4981;50.966;4.842;2024-02-16T08:59:23;13.10;1.00
9885;DHT22;4981;50.966;4.842;2024-02-16T09:01:50;13.20;1.00
9885;DHT22;4981;50.966;4.842;2024-02-16T09:04:17;13.20;1.00
9885;DHT22;4981;50.966;4.842;2024-02-16T09:06:44;13.20;1.00
9885;DHT22;4981;50.966;4.842;2024-02-16T09:09:11;13.20;1.00
9885;DHT22;4981;50.966;4.842;2024-02-16T09:11:40;13.30;1.00
9885;DHT22;4981;50.966;4.842;2024-02-16T09:14:09;13.40;1.00
9885;DHT22;4981;50.966;4.842;2024-02-16T09:16:36;13.30;1.00
9885;DHT22;4981;50.966;4.842;2024-02-16T09:19:03;13.40;1.00
9885;DHT22;4981;50.966;4.842;2024-02-16T09:21:30;13.40;1.00
9885;DHT22;4981;50.966;4.842;2024-02-16T09:23:57;13.40;1.00
9885;DHT22;4981;50.966;4.842;2024-02-16T09:26:26;13.40;1.00
9885;DHT22;4981;50.966;4.842;2024-02-16T09:28:56;13.50;1.00
9885;DHT22;4981;50.966;4.842;2024-02-16T09:31:25;13.60;1.00
9885;DHT22;4981;50.966;4.842;2024-02-16T09:33:52;13.60;1.00
9885;DHT22;4981;50.966;4.842;2024-02-16T09:36:19;13.60;1.00
9885;DHT22;4981;50.966;4.842;2024-02-16T09:38:46;13.70;1.00
9885;DHT22;4981;50.966;4.842;2024-02-16T09:41:13;13.70;1.00
9885;DHT22;4981;50.966;4.842;2024-02-16T09:43:42;13.70;1.00
9885;DHT22;4981;50.966;4.842;2024-02-16T09:46:09;13.70;1.00
9885;DHT22;4981;50.966;4.842;2024-02-16T09:48:39;13.00;1.00
9885;DHT22;4981;50.966;4.842;2024-02-16T09:51:09;13.70;1.00
9885;DHT22;4981;50.966;4.842;2024-02-16T09:53:36;13.70;1.00
9885;DHT22;4981;50.966;4.842;2024-02-16T09:56:05;13.70;1.00
9885;DHT22;4981;50.966;4.842;2024-02-16T09:58:34;13.70;1.00
9885;DHT22;4981;50.966;4.842;2024-02-16T10:01:02;13.80;1.00
9885;DHT22;4981;50.966;4.842;2024-02-16T10:03:30;13.80;1.00
9885;DHT22;4981;50.966;4.842;2024-02-16T10:06:06;13.80;1.00
9885;DHT22;4981;50.966;4.842;2024-02-16T10:08:33;13.80;1.00
9885;DHT22;4981;50.966;4.842;2024-02-16T10:11:01;13.80;1.00
9885;DHT22;4981;50.966;4.842;2024-02-16T10:13:29;13.80;1.00
9885;DHT22;4981;50.966;4.842;2024-02-16T10:16:05;13.80;1.00
9885;DHT22;4981;50.966;4.842;2024-02-16T10:18:34;13.90;1.00
9885;DHT22;4981;50.966;4.842;2024-02-16T10:21:01;13.80;1.00
9885;DHT22;4981;50.966;4.842;2024-02-16T10:23:30;13.80;1.00
9885;DHT22;4981;50.966;4.842;2024-02-16T10:25:58;13.80;1.00
9885;DHT22;4981;50.966;4.842;2024-02-16T10:28:28;13.90;1.00
9885;DHT22;4981;50.966;4.842;2024-02-16T10:30:58;13.90;1.00
9885;DHT22;4981;50.966;4.842;2024-02-16T10:33:27;13.80;1.00
9885;DHT22;4981;50.966;4.842;2024-02-16T10:35:56;13.90;1.00
9885;DHT22;4981;50.966;4.842;2024-02-16T10:38:24;13.90;1.00
9885;DHT22;4981;50.966;4.842;2024-02-16T10:40:54;13.90;1.00
9885;DHT22;4981;50.966;4.842;2024-02-16T10:43:23;14.00;1.00
9885;DHT22;4981;50.966;4.842;2024-02-16T10:45:52;14.00;1.00
9885;DHT22;4981;50.966;4.842;2024-02-16T10:48:19;14.00;1.00
9885;DHT22;4981;50.966;4.842;2024-02-16T10:50:46;14.10;1.00
9885;DHT22;4981;50.966;4.842;2024-02-16T10:53:21;14.20;1.00
9885;DHT22;4981;50.966;4.842;2024-02-16T10:55:50;14.10;1.00
9885;DHT22;4981;50.966;4.842;2024-02-16T10:58:18;14.20;1.00
9885;DHT22;4981;50.966;4.842;2024-02-16T11:00:53;14.20;1.00
9885;DHT22;4981;50.966;4.842;2024-02-16T11:03:24;14.10;1.00
9885;DHT22;4981;50.966;4.842;2024-02-16T11:05:52;14.00;1.00
9885;DHT22;4981;50.966;4.842;2024-02-16T11:08:20;14.00;1.00
9885;DHT22;4981;50.966;4.842;2024-02-16T11:10:54;14.00;1.00
9885;DHT22;4981;50.966;4.842;2024-02-16T11:13:24;14.00;1.00
9885;DHT22;4981;50.966;4.842;2024-02-16T11:16:01;14.00;1.00
9885;DHT22;4981;50.966;4.842;2024-02-16T11:18:30;14.00;1.00
9885;DHT22;4981;50.966;4.842;2024-02-16T11:21:00;14.00;1.00
9885;DHT22;4981;50.966;4.842;2024-02-16T11:23:28;14.00;1.00
9885;DHT22;4981;50.966;4.842;2024-02-16T11:26:00;13.90;1.00
9885;DHT22;4981;50.966;4.842;2024-02-16T11:28:31;13.80;1.00
9885;DHT22;4981;50.966;4.842;2024-02-16T11:30:58;13.70;1.00
9885;DHT22;4981;50.966;4.842;2024-02-16T11:33:25;13.60;1.00
9885;DHT22;4981;50.966;4.842;2024-02-16T11:35:54;13.70;1.00
9885;DHT22;4981;50.966;4.842;2024-02-16T11:38:22;13.70;1.00
9885;DHT22;4981;50.966;4.842;2024-02-16T11:40:56;13.60;1.00
9885;DHT22;4981;50.966;4.842;2024-02-16T11:43:24;13.60;1.00
9885;DHT22;4981;50.966;4.842;2024-02-16T11:45:54;13.60;1.00
9885;DHT22;4981;50.966;4.842;2024-02-16T11:48:21;13.30;1.00
9885;DHT22;4981;50.966;4.842;2024-02-16T11:50:50;13.50;1.00
9885;DHT22;4981;50.966;4.842;2024-02-16T11:53:17;13.50;1.00
9885;DHT22;4981;50.966;4.842;2024-02-16T11:55:49;13.60;1.00
9885;DHT22;4981;50.966;4.842;2024-02-16T11:58:16;13.50;1.00
9885;DHT22;4981;50.966;4.842;2024-02-16T12:00:44;13.40;1.00
9885;DHT22;4981;50.966;4.842;2024-02-16T12:03:19;13.30;1.00
9885;DHT22;4981;50.966;4.842;2024-02-16T12:05:51;13.10;1.00
9885;DHT22;4981;50.966;4.842;2024-02-16T12:08:18;13.10;1.00
9885;DHT22;4981;50.966;4.842;2024-02-16T12:10:47;12.90;1.00
9885;DHT22;4981;50.966;4.842;2024-02-16T12:13:16;12.90;1.00
9885;DHT22;4981;50.966;4.842;2024-02-16T12:15:44;12.90;1.00
9885;DHT22;4981;50.966;4.842;2024-02-16T12:18:20;12.90;1.00
9885;DHT22;4981;50.966;4.842;2024-02-16T12:20:57;12.80;1.00
9885;DHT22;4981;50.966;4.842;2024-02-16T12:23:24;12.80;1.00
9885;DHT22;4981;50.966;4.842;2024-02-16T12:25:51;12.80;1.00
9885;DHT22;4981;50.966;4.842;2024-02-16T12:28:19;12.70;1.00
9885;DHT22;4981;50.966;4.842;2024-02-16T12:30:47;12.70;1.00
9885;DHT22;4981;50.966;4.842;2024-02-16T12:33:15;12.70;1.00
9885;DHT22;4981;50.966;4.842;2024-02-16T12:35:43;12.70;1.00
9885;DHT22;4981;50.966;4.842;2024-02-16T12:38:11;12.60;1.00
9885;DHT22;4981;50.966;4.842;2024-02-16T12:40:38;12.60;1.00
9885;DHT22;4981;50.966;4.842;2024-02-16T12:43:05;12.60;1.00
9885;DHT22;4981;50.966;4.842;2024-02-16T12:45:34;12.50;1.00
9885;DHT22;4981;50.966;4.842;2024-02-16T12:48:04;12.50;1.00
9885;DHT22;4981;50.966;4.842;2024-02-16T12:50:31;12.50;1.00
9885;DHT22;4981;50.966;4.842;2024-02-16T12:53:01;12.40;1.00
9885;DHT22;4981;50.966;4.842;2024-02-16T12:55:27;12.40;1.00
9885;DHT22;4981;50.966;4.842;2024-02-16T12:57:56;12.40;1.00
9885;DHT22;4981;50.966;4.842;2024-02-16T13:00:23;12.40;1.00
9885;DHT22;4981;50.966;4.842;2024-02-16T13:02:50;12.30;1.00
9885;DHT22;4981;50.966;4.842;2024-02-16T13:05:17;12.30;1.00
9885;DHT22;4981;50.966;4.842;2024-02-16T13:07:44;12.40;1.00
9885;DHT22;4981;50.966;4.842;2024-02-16T13:10:13;12.50;1.00
9885;DHT22;4981;50.966;4.842;2024-02-16T13:12:40;12.40;1.00
9885;DHT22;4981;50.966;4.842;2024-02-16T13:15:08;12.30;1.00
9885;DHT22;4981;50.966;4.842;2024-02-16T13:17:35;12.30;1.00
9885;DHT22;4981;50.966;4.842;2024-02-16T13:20:03;12.30;1.00
9885;DHT22;4981;50.966;4.842;2024-02-16T13:22:35;12.30;1.00
9885;DHT22;4981;50.966;4.842;2024-02-16T13:25:03;12.30;1.00
9885;DHT22;4981;50.966;4.842;2024-02-16T13:27:31;12.20;1.00
9885;DHT22;4981;50.966;4.842;2024-02-16T13:29:58;12.30;1.00
9885;DHT22;4981;50.966;4.842;2024-02-16T13:32:25;12.20;1.00
9885;DHT22;4981;50.966;4.842;2024-02-16T13:34:52;12.20;1.00
9885;DHT22;4981;50.966;4.842;2024-02-16T13:37:19;12.10;1.00
9885;DHT22;4981;50.966;4.842;2024-02-16T13:39:46;12.10;1.00
9885;DHT22;4981;50.966;4.842;2024-02-16T13:42:13;12.00;1.00
9885;DHT22;4981;50.966;4.842;2024-02-16T13:44:42;11.90;1.00
9885;DHT22;4981;50.966;4.842;2024-02-16T13:47:09;12.10;1.00
9885;DHT22;4981;50.966;4.842;2024-02-16T13:49:36;12.20;1.00
9885;DHT22;4981;50.966;4.842;2024-02-16T13:52:04;12.10;1.00
9885;DHT22;4981;50.966;4.842;2024-02-16T13:54:31;12.10;1.00
9885;DHT22;4981;50.966;4.842;2024-02-16T13:56:58;12.30;1.00
9885;DHT22;4981;50.966;4.842;2024-02-16T13:59:25;12.10;1.00
9885;DHT22;4981;50.966;4.842;2024-02-16T14:01:54;12.00;1.00
9885;DHT22;4981;50.966;4.842;2024-02-16T14:04:22;12.20;1.00
9885;DHT22;4981;50.966;4.842;2024-02-16T14:06:49;12.20;1.00
9885;DHT22;4981;50.966;4.842;2024-02-16T14:09:16;12.20;1.00
9885;DHT22;4981;50.966;4.842;2024-02-16T14:11:45;12.20;1.00
9885;DHT22;4981;50.966;4.842;2024-02-16T14:14:12;12.20;1.00
9885;DHT22;4981;50.966;4.842;2024-02-16T14:16:39;12.30;1.00
9885;DHT22;4981;50.966;4.842;2024-02-16T14:19:08;12.20;1.00
9885;DHT22;4981;50.966;4.842;2024-02-16T14:21:35;12.40;1.00
9885;DHT22;4981;50.966;4.842;2024-02-16T14:24:02;12.30;1.00
9885;DHT22;4981;50.966;4.842;2024-02-16T14:26:29;12.30;1.00
9885;DHT22;4981;50.966;4.842;2024-02-16T14:28:56;12.40;1.00
9885;DHT22;4981;50.966;4.842;2024-02-16T14:31:23;12.40;1.00
9885;DHT22;4981;50.966;4.842;2024-02-16T14:33:50;12.40;1.00
9885;DHT22;4981;50.966;4.842;2024-02-16T14:36:18;12.20;1.00
9885;DHT22;4981;50.966;4.842;2024-02-16T14:38:45;12.10;1.00
9885;DHT22;4981;50.966;4.842;2024-02-16T14:41:13;12.10;1.00
9885;DHT22;4981;50.966;4.842;2024-02-16T14:43:42;12.20;1.00
9885;DHT22;4981;50.966;4.842;2024-02-16T14:46:09;12.10;1.00
9885;DHT22;4981;50.966;4.842;2024-02-16T14:48:36;12.10;1.00
9885;DHT22;4981;50.966;4.842;2024-02-16T14:51:04;12.20;1.00
9885;DHT22;4981;50.966;4.842;2024-02-16T14:53:32;12.30;1.00
9885;DHT22;4981;50.966;4.842;2024-02-16T14:55:59;12.30;1.00
9885;DHT22;4981;50.966;4.842;2024-02-16T14:58:26;12.40;1.00
9885;DHT22;4981;50.966;4.842;2024-02-16T15:00:53;12.20;1.00
9885;DHT22;4981;50.966;4.842;2024-02-16T15:03:22;12.20;1.00
9885;DHT22;4981;50.966;4.842;2024-02-16T15:05:49;12.20;1.00
9885;DHT22;4981;50.966;4.842;2024-02-16T15:08:16;12.20;1.00
9885;DHT22;4981;50.966;4.842;2024-02-16T15:10:45;12.20;1.00
9885;DHT22;4981;50.966;4.842;2024-02-16T15:13:13;12.30;1.00
9885;DHT22;4981;50.966;4.842;2024-02-16T15:15:40;12.20;1.00
9885;DHT22;4981;50.966;4.842;2024-02-16T15:18:07;12.20;1.00
9885;DHT22;4981;50.966;4.842;2024-02-16T15:20:34;12.10;1.00
9885;DHT22;4981;50.966;4.842;2024-02-16T15:23:01;12.20;1.00
9885;DHT22;4981;50.966;4.842;2024-02-16T15:25:28;12.20;1.00
9885;DHT22;4981;50.966;4.842;2024-02-16T15:27:56;12.30;1.00
9885;DHT22;4981;50.966;4.842;2024-02-16T15:30:24;12.20;1.00
9885;DHT22;4981;50.966;4.842;2024-02-16T15:32:51;12.20;1.00
9885;DHT22;4981;50.966;4.842;2024-02-16T15:35:18;12.20;1.00
9885;DHT22;4981;50.966;4.842;2024-02-16T15:37:45;12.20;1.00
9885;DHT22;4981;50.966;4.842;2024-02-16T15:40:12;12.30;1.00
9885;DHT22;4981;50.966;4.842;2024-02-16T15:42:40;12.30;1.00
9885;DHT22;4981;50.966;4.842;2024-02-16T15:45:09;12.50;1.00
9885;DHT22;4981;50.966;4.842;2024-02-16T15:47:37;12.70;1.00
9885;DHT22;4981;50.966;4.842;2024-02-16T15:50:06;13.00;1.00
9885;DHT22;4981;50.966;4.842;2024-02-16T15:52:34;12.90;1.00
9885;DHT22;4981;50.966;4.842;2024-02-16T15:55:01;13.00;1.00
9885;DHT22;4981;50.966;4.842;2024-02-16T15:57:28;12.90;1.00
9885;DHT22;4981;50.966;4.842;2024-02-16T15:59:55;12.60;1.00
9885;DHT22;4981;50.966;4.842;2024-02-16T16:02:25;12.50;1.00
9885;DHT22;4981;50.966;4.842;2024-02-16T16:04:52;12.50;1.00
9885;DHT22;4981;50.966;4.842;2024-02-16T16:07:19;12.40;1.00
9885;DHT22;4981;50.966;4.842;2024-02-16T16:09:45;12.50;1.00
9885;DHT22;4981;50.966;4.842;2024-02-16T16:12:12;12.40;1.00
9885;DHT22;4981;50.966;4.842;2024-02-16T16:14:39;12.50;1.00
9885;DHT22;4981;50.966;4.842;2024-02-16T16:17:06;12.50;1.00
9885;DHT22;4981;50.966;4.842;2024-02-16T16:19:35;12.40;1.00
9885;DHT22;4981;50.966;4.842;2024-02-16T16:22:02;12.40;1.00